Time;durP1;ratioP1;P1;durP2;ratioP2;P2;SDS_P1;SDS_P2;PMS_P1;PMS_P2;Temp;Humidity;BMP_temperature;BMP_pressure;BME280_temperature;BME280_humidity;BME280_pressure;Samples;Min_cycle;Max_cycle;Signal;HPM_P1;HPM_P2
2022/01/24 00:02:25;;;;;;;14.77;6.72;;;7.80;99.90;;;;;;5052601;28;20021;-39
2022/01/24 00:04:50;;;;;;;14.37;6.03;;;7.80;99.90;;;;;;5052796;28;20667;-38
2022/01/24 00:07:20;;;;;;;16.55;5.63;;;7.70;99.90;;;;;;5052502;28;20033;-38
2022/01/24 00:09:46;;;;;;;13.82;5.65;;;7.60;99.90;;;;;;5051572;28;20158;-39
2022/01/24 00:12:59;;;;;;;9.63;5.32;;;7.50;99.90;;;;;;5052733;28;20236;-39
2022/01/24 00:15:15;;;;;;;11.38;5.72;;;7.60;99.90;;;;;;5052292;28;20099;-39
2022/01/24 00:18:06;;;;;;;19.73;7.03;;;7.50;99.90;;;;;;5052510;28;20032;-40
2022/01/24 00:28:22;;;;;;;12.93;6.07;;;7.40;99.90;;;;;;5052374;28;20075;-40
2022/01/24 00:30:48;;;;;;;10.77;5.60;;;7.40;99.90;;;;;;5052267;28;20033;-39
2022/01/24 00:33:15;;;;;;;12.88;6.45;;;7.40;99.90;;;;;;5052413;28;20075;-40
2022/01/24 00:35:40;;;;;;;13.43;6.10;;;7.40;99.90;;;;;;5046671;28;20045;-41
2022/01/24 00:38:06;;;;;;;12.20;5.72;;;7.60;99.90;;;;;;5032408;28;20064;-39
2022/01/24 00:40:36;;;;;;;12.90;6.00;;;7.50;99.90;;;;;;5032641;28;20033;-40
2022/01/24 00:43:05;;;;;;;13.95;6.22;;;7.60;99.90;;;;;;5032570;28;20030;-39
2022/01/24 00:45:38;;;;;;;14.02;6.30;;;7.60;99.90;;;;;;5032239;28;20060;-42
2022/01/24 00:48:22;;;;;;;12.02;5.22;;;7.50;99.90;;;;;;5032613;28;20036;-42
2022/01/24 00:56:17;;;;;;;13.60;6.15;;;7.50;99.90;;;;;;5048951;28;20055;-39
2022/01/24 00:58:43;;;;;;;14.07;6.40;;;7.40;99.90;;;;;;5034943;28;20030;-40
2022/01/24 01:01:09;;;;;;;13.27;6.32;;;7.50;99.90;;;;;;5043912;28;20393;-41
2022/01/24 01:03:34;;;;;;;19.23;6.82;;;7.50;99.90;;;;;;5056058;28;20086;-55
2022/01/24 01:06:08;;;;;;;18.98;7.25;;;7.50;99.90;;;;;;5055682;28;20452;-41
2022/01/24 01:19:33;;;;;;;16.05;7.40;;;7.50;99.90;;;;;;5055436;28;20040;-40
2022/01/24 01:21:59;;;;;;;17.73;6.68;;;7.60;99.90;;;;;;5055384;28;20033;-37
2022/01/24 01:24:27;;;;;;;19.27;6.82;;;7.50;99.90;;;;;;5055536;28;20048;-40
2022/01/24 01:27:00;;;;;;;19.45;8.82;;;7.60;99.90;;;;;;5055033;28;20431;-37
2022/01/24 01:29:31;;;;;;;15.18;8.18;;;7.60;99.90;;;;;;5043980;28;20037;-40
2022/01/24 01:52:23;;;;;;;22.35;9.18;;;7.60;99.90;;;;;;5053432;28;20033;-47
2022/01/24 01:56:04;;;;;;;18.25;8.63;;;7.50;99.90;;;;;;5054632;28;20039;-39
2022/01/24 01:58:29;;;;;;;21.13;8.73;;;7.50;99.90;;;;;;5054699;28;20025;-40
2022/01/24 02:00:58;;;;;;;21.70;9.60;;;7.50;99.90;;;;;;5052259;28;20509;-39
2022/01/24 02:03:25;;;;;;;19.55;8.43;;;7.50;99.90;;;;;;5054482;28;20032;-42
2022/01/24 02:05:51;;;;;;;17.98;8.45;;;7.40;99.90;;;;;;5034697;28;20025;-39
2022/01/24 02:08:18;;;;;;;18.52;8.95;;;7.40;99.90;;;;;;5034636;28;20104;-39
2022/01/24 02:10:44;;;;;;;19.52;8.65;;;7.40;99.90;;;;;;5034586;28;20393;-41
2022/01/24 02:13:11;;;;;;;20.10;9.27;;;7.30;99.90;;;;;;5034695;28;20032;-48
2022/01/24 02:15:50;;;;;;;18.70;9.32;;;7.30;99.90;;;;;;5034686;28;20120;-39
2022/01/24 02:23:49;;;;;;;23.80;10.65;;;7.30;99.90;;;;;;5033103;28;20034;-43
2022/01/24 02:26:21;;;;;;;22.77;9.35;;;7.30;99.90;;;;;;5034562;28;20545;-40
2022/01/24 02:28:59;;;;;;;24.50;10.85;;;7.30;99.90;;;;;;5034140;28;20072;-41
2022/01/24 02:31:39;;;;;;;22.60;9.70;;;7.30;99.90;;;;;;5018012;28;20034;-40
2022/01/24 02:34:30;;;;;;;26.02;9.88;;;7.30;99.90;;;;;;5033993;28;20056;-46
2022/01/24 02:36:59;;;;;;;24.67;10.35;;;7.30;99.90;;;;;;5045652;28;20045;-47
2022/01/24 02:39:46;;;;;;;27.65;10.55;;;7.30;99.90;;;;;;5054128;28;20028;-39
2022/01/24 02:53:01;;;;;;;28.58;11.32;;;7.10;99.90;;;;;;5053458;28;20080;-39
2022/01/24 02:55:27;;;;;;;29.92;12.32;;;7.20;99.90;;;;;;5053497;28;20029;-41
2022/01/24 02:57:52;;;;;;;29.00;12.23;;;7.10;99.90;;;;;;5053674;28;20032;-38
2022/01/24 03:00:18;;;;;;;36.67;13.15;;;7.20;99.90;;;;;;5053566;28;20112;-40
2022/01/24 03:02:43;;;;;;;34.38;13.43;;;7.20;99.90;;;;;;5053521;28;20029;-41
2022/01/24 03:05:09;;;;;;;28.67;12.15;;;7.20;99.90;;;;;;5053382;28;20499;-52
2022/01/24 03:07:35;;;;;;;24.20;11.90;;;7.10;99.90;;;;;;5053594;28;20154;-40
2022/01/24 03:10:08;;;;;;;29.48;11.85;;;7.10;99.90;;;;;;5053183;28;20112;-41
2022/01/24 03:12:44;;;;;;;29.70;13.27;;;7.00;99.90;;;;;;5053500;28;20075;-41
2022/01/24 03:15:10;;;;;;;30.83;11.93;;;7.00;99.90;;;;;;5052028;28;20503;-40
2022/01/24 03:17:36;;;;;;;27.52;12.73;;;7.00;99.90;;;;;;5053362;28;20082;-47
2022/01/24 03:20:02;;;;;;;31.40;13.95;;;7.00;99.90;;;;;;5051444;28;20029;-39
2022/01/24 03:22:28;;;;;;;34.40;13.60;;;7.00;99.90;;;;;;5053352;28;20032;-40
2022/01/24 03:24:53;;;;;;;35.38;13.88;;;7.00;99.90;;;;;;5053198;28;20481;-40
2022/01/24 03:27:19;;;;;;;34.10;13.63;;;7.00;99.90;;;;;;5053082;28;20025;-41
2022/01/24 03:29:45;;;;;;;33.65;14.07;;;7.00;99.90;;;;;;5052761;28;20409;-40
2022/01/24 03:32:10;;;;;;;35.17;13.90;;;7.00;99.90;;;;;;5052951;28;20033;-40
2022/01/24 03:34:36;;;;;;;28.45;13.75;;;7.00;99.90;;;;;;5052948;28;20082;-40
2022/01/24 03:37:02;;;;;;;29.63;13.90;;;7.00;99.90;;;;;;5036931;28;20054;-40
2022/01/24 03:39:27;;;;;;;30.05;13.05;;;7.00;99.90;;;;;;5032942;28;20398;-40
2022/01/24 03:41:53;;;;;;;35.90;16.10;;;7.00;99.90;;;;;;5032822;28;20104;-40
2022/01/24 03:44:19;;;;;;;33.90;15.07;;;7.00;99.90;;;;;;5032934;28;20034;-40
2022/01/24 03:49:45;;;;;;;34.85;15.70;;;7.00;99.90;;;;;;5032882;28;20063;-40
2022/01/24 03:52:05;;;;;;;34.85;14.32;;;7.00;99.90;;;;;;5032444;28;20088;-40
2022/01/24 03:54:31;;;;;;;34.50;15.25;;;7.00;99.90;;;;;;5032780;28;20033;-39
2022/01/24 03:56:57;;;;;;;35.67;14.90;;;7.00;99.90;;;;;;5032709;28;20497;-40
2022/01/24 03:59:22;;;;;;;29.75;14.55;;;7.10;99.90;;;;;;5033066;28;20053;-40
2022/01/24 04:01:48;;;;;;;34.58;14.93;;;7.10;99.90;;;;;;5032722;28;20026;-40
2022/01/24 04:04:13;;;;;;;38.97;15.88;;;7.10;99.90;;;;;;5032772;28;20096;-40
2022/01/24 04:06:39;;;;;;;40.78;15.73;;;7.10;99.90;;;;;;5032799;28;20481;-40
2022/01/24 04:09:05;;;;;;;34.60;15.57;;;7.00;99.90;;;;;;5032895;28;20044;-59
2022/01/24 04:11:35;;;;;;;37.13;16.85;;;6.90;99.90;;;;;;5031467;28;20033;-40
2022/01/24 04:14:21;;;;;;;40.50;15.95;;;6.90;99.90;;;;;;5032610;28;20060;-41
2022/01/24 04:16:53;;;;;;;42.70;17.73;;;6.90;99.90;;;;;;5032613;28;20155;-42
2022/01/24 04:21:18;;;;;;;41.40;17.85;;;6.80;99.90;;;;;;5032992;28;20030;-40
2022/01/24 04:22:16;;;;;;;37.97;17.35;;;6.80;99.90;;;;;;5032499;28;20090;-41
2022/01/24 04:24:43;;;;;;;44.15;18.25;;;6.80;99.90;;;;;;5032616;28;20033;-40
2022/01/24 04:27:09;;;;;;;42.33;18.90;;;6.80;99.90;;;;;;5032631;28;20479;-45
2022/01/24 04:29:36;;;;;;;42.15;17.52;;;6.80;99.90;;;;;;5032320;28;20045;-40
2022/01/24 04:32:02;;;;;;;42.50;18.27;;;6.80;99.90;;;;;;5032720;28;20122;-40
2022/01/24 04:34:28;;;;;;;35.35;16.98;;;6.80;99.90;;;;;;5036366;28;20524;-40
2022/01/24 04:36:54;;;;;;;44.38;18.05;;;6.80;99.90;;;;;;5036179;28;20096;-54
2022/01/24 04:39:20;;;;;;;48.50;18.27;;;6.90;99.90;;;;;;5036345;28;20025;-40
2022/01/24 04:41:49;;;;;;;38.83;18.05;;;6.90;99.90;;;;;;5036290;28;20425;-40
2022/01/24 04:46:57;;;;;;;50.92;20.42;;;6.80;99.90;;;;;;5036441;28;20034;-41
2022/01/24 04:52:19;;;;;;;48.88;19.65;;;6.90;99.90;;;;;;5034633;28;20057;-68
2022/01/24 04:54:45;;;;;;;38.53;17.45;;;7.00;99.90;;;;;;5035958;28;20060;-75
2022/01/24 04:57:16;;;;;;;45.67;19.92;;;6.90;99.90;;;;;;5036013;28;20025;-40
2022/01/24 04:59:44;;;;;;;45.55;21.58;;;6.80;99.90;;;;;;5036156;28;20025;-40
2022/01/24 05:02:10;;;;;;;44.72;19.30;;;6.80;99.90;;;;;;5034566;28;20071;-41
2022/01/24 05:04:36;;;;;;;42.75;19.27;;;6.70;99.90;;;;;;5035866;28;20112;-40
2022/01/24 05:07:03;;;;;;;49.17;17.80;;;6.70;99.90;;;;;;5035828;28;20036;-39
2022/01/24 05:09:34;;;;;;;45.38;18.48;;;6.70;99.90;;;;;;5034100;28;20502;-39
2022/01/24 05:12:07;;;;;;;43.33;18.50;;;6.70;99.90;;;;;;5035859;28;20477;-39
2022/01/24 05:25:50;;;;;;;40.95;18.45;;;6.70;99.90;;;;;;5043688;28;20462;-42
2022/01/24 05:28:15;;;;;;;48.88;18.73;;;6.70;99.90;;;;;;5054992;28;20060;-40
2022/01/24 05:30:41;;;;;;;46.05;19.38;;;6.70;99.90;;;;;;5042918;28;20040;-40
2022/01/24 05:33:07;;;;;;;41.38;18.98;;;6.70;99.90;;;;;;5034380;28;20044;-40
2022/01/24 05:35:33;;;;;;;45.20;20.48;;;6.70;99.90;;;;;;5039057;28;20032;-40
2022/01/24 05:37:58;;;;;;;45.75;19.65;;;6.80;99.90;;;;;;5055462;28;20028;-40
2022/01/24 05:40:25;;;;;;;42.40;19.15;;;6.70;99.90;;;;;;5055098;28;20032;-41
2022/01/24 05:42:51;;;;;;;43.20;17.67;;;6.60;99.90;;;;;;5037281;28;20037;-40
2022/01/24 05:45:16;;;;;;;48.13;19.58;;;6.60;99.90;;;;;;5034940;28;20041;-39
2022/01/24 05:47:42;;;;;;;38.97;18.20;;;6.60;99.90;;;;;;5033443;28;20052;-41
2022/01/24 05:50:08;;;;;;;43.88;18.80;;;6.60;99.90;;;;;;5033549;28;20057;-37
2022/01/24 05:52:34;;;;;;;39.85;17.65;;;6.70;99.90;;;;;;5034773;28;20045;-40
2022/01/24 05:55:00;;;;;;;39.13;18.05;;;6.70;99.90;;;;;;5034871;28;20026;-39
2022/01/24 05:57:25;;;;;;;39.50;17.98;;;6.70;99.90;;;;;;5017096;28;20021;-40
2022/01/24 05:59:54;;;;;;;38.88;17.85;;;6.70;99.90;;;;;;5035423;28;20072;-37
2022/01/24 06:02:20;;;;;;;40.42;17.45;;;6.80;99.90;;;;;;5035032;28;20065;-40
2022/01/24 06:04:45;;;;;;;38.65;17.50;;;6.70;99.90;;;;;;5033327;28;20493;-40
2022/01/24 06:07:11;;;;;;;41.70;17.15;;;6.60;99.90;;;;;;5034670;28;20029;-38
2022/01/24 06:09:37;;;;;;;38.90;18.15;;;6.50;99.90;;;;;;5035097;28;20022;-40
2022/01/24 06:12:03;;;;;;;45.10;20.45;;;6.40;99.90;;;;;;5034766;28;20021;-41
2022/01/24 06:14:29;;;;;;;39.10;19.05;;;6.40;99.90;;;;;;5034728;28;20021;-39
2022/01/24 06:16:54;;;;;;;44.72;19.48;;;6.40;99.90;;;;;;5034430;28;20026;-39
2022/01/24 06:19:20;;;;;;;38.75;17.83;;;6.40;99.90;;;;;;5034243;28;20381;-40
2022/01/24 06:21:45;;;;;;;39.97;18.35;;;6.40;99.90;;;;;;5034319;28;20172;-39
2022/01/24 06:24:12;;;;;;;36.75;18.25;;;6.60;99.90;;;;;;5034479;28;20021;-39
2022/01/24 06:26:39;;;;;;;43.58;19.42;;;6.60;99.90;;;;;;5034767;28;20052;-39
2022/01/24 06:29:04;;;;;;;34.70;17.85;;;6.60;99.90;;;;;;5033811;28;20092;-41
2022/01/24 06:31:30;;;;;;;37.53;17.58;;;6.70;99.90;;;;;;5033955;28;20462;-52
2022/01/24 06:33:56;;;;;;;37.58;17.48;;;6.50;99.90;;;;;;5034025;28;20108;-42
2022/01/24 06:36:21;;;;;;;36.00;17.27;;;6.50;99.90;;;;;;5033982;28;20017;-40
2022/01/24 06:38:47;;;;;;;42.22;18.13;;;6.50;99.90;;;;;;5034270;28;20470;-40
2022/01/24 06:41:21;;;;;;;39.97;17.88;;;6.50;99.90;;;;;;5033925;28;20033;-44
2022/01/24 06:43:47;;;;;;;35.65;15.98;;;6.50;99.90;;;;;;5036681;28;20029;-40
2022/01/24 06:46:13;;;;;;;40.63;17.17;;;6.50;99.90;;;;;;5053776;28;20083;-39
2022/01/24 06:48:38;;;;;;;37.80;15.63;;;6.40;99.90;;;;;;5053707;28;20504;-39
2022/01/24 06:51:10;;;;;;;37.80;16.80;;;6.40;99.90;;;;;;5041677;28;20029;-39
2022/01/24 06:53:39;;;;;;;40.33;17.80;;;6.50;99.90;;;;;;5032455;28;20508;-39
2022/01/24 06:56:08;;;;;;;37.72;17.73;;;6.40;99.90;;;;;;5049563;28;20040;-40
2022/01/24 06:58:35;;;;;;;39.92;16.58;;;6.40;99.90;;;;;;5053717;28;20358;-40
2022/01/24 07:01:01;;;;;;;34.58;16.73;;;6.50;99.90;;;;;;5052849;28;20121;-39
2022/01/24 07:03:27;;;;;;;34.35;16.50;;;6.50;99.90;;;;;;5053578;28;20381;-38
2022/01/24 07:05:53;;;;;;;28.38;14.55;;;6.50;99.90;;;;;;5037931;28;20029;-40
2022/01/24 07:08:18;;;;;;;30.52;15.00;;;6.50;99.90;;;;;;5033601;28;20018;-40
2022/01/24 07:10:44;;;;;;;33.33;16.17;;;6.50;99.90;;;;;;5033120;28;20030;-39
2022/01/24 07:13:10;;;;;;;29.60;13.60;;;6.40;99.90;;;;;;5033276;28;20442;-40
2022/01/24 07:15:45;;;;;;;29.83;14.80;;;6.40;99.90;;;;;;5033473;28;20406;-39
2022/01/24 07:18:57;;;;;;;33.05;14.00;;;6.40;99.90;;;;;;5033569;28;20061;-39
2022/01/24 07:21:04;;;;;;;32.85;14.05;;;6.40;99.90;;;;;;5032871;28;20056;-39
2022/01/24 07:23:30;;;;;;;29.40;13.55;;;6.50;99.90;;;;;;5033887;28;20033;-38
2022/01/24 07:25:56;;;;;;;33.70;14.15;;;6.50;99.90;;;;;;5033069;28;20029;-38
2022/01/24 07:28:22;;;;;;;28.35;13.15;;;6.60;99.90;;;;;;5033506;28;20028;-38
2022/01/24 07:30:47;;;;;;;25.75;12.68;;;6.70;99.90;;;;;;5032890;28;20147;-44
2022/01/24 07:33:17;;;;;;;30.92;14.38;;;6.60;99.90;;;;;;5031885;28;20037;-39
2022/01/24 07:35:44;;;;;;;28.35;13.07;;;6.50;99.90;;;;;;5038130;28;20060;-39
2022/01/24 07:38:10;;;;;;;28.50;13.40;;;6.50;99.90;;;;;;5052641;28;20032;-37
2022/01/24 07:40:42;;;;;;;29.77;13.55;;;6.40;99.90;;;;;;5051433;28;20397;-42
2022/01/24 07:45:35;;;;;;;28.17;14.15;;;6.30;99.90;;;;;;5052940;28;20112;-51
2022/01/24 07:48:01;;;;;;;30.08;14.50;;;6.30;99.90;;;;;;5052718;28;20028;-46
2022/01/24 07:50:27;;;;;;;26.90;12.93;;;6.30;99.90;;;;;;5052643;28;20025;-57
2022/01/24 07:52:55;;;;;;;28.63;14.35;;;6.30;99.90;;;;;;5052317;28;20052;-37
2022/01/24 07:55:21;;;;;;;29.60;15.37;;;6.30;99.90;;;;;;5052875;28;20496;-39
2022/01/24 07:57:47;;;;;;;26.50;13.57;;;6.30;99.90;;;;;;5052492;28;20263;-38
2022/01/24 08:00:13;;;;;;;34.33;15.65;;;6.30;99.90;;;;;;5052597;28;20036;-39
2022/01/24 08:02:40;;;;;;;30.60;15.77;;;6.30;99.90;;;;;;5052859;28;20096;-40
2022/01/24 08:05:07;;;;;;;29.48;14.23;;;6.20;99.90;;;;;;5052674;28;20025;-39
2022/01/24 08:07:32;;;;;;;26.98;14.43;;;6.30;99.90;;;;;;5055466;28;20025;-39
2022/01/24 08:09:58;;;;;;;31.27;14.90;;;6.30;99.90;;;;;;5056610;28;20025;-40
2022/01/24 08:12:24;;;;;;;40.60;14.75;;;6.30;99.90;;;;;;5056715;28;20032;-39
2022/01/24 08:14:50;;;;;;;35.10;15.50;;;6.30;99.90;;;;;;5056585;28;20440;-38
2022/01/24 08:17:16;;;;;;;37.88;14.60;;;6.30;99.90;;;;;;5056439;28;20053;-41
2022/01/24 08:19:41;;;;;;;34.60;16.85;;;6.30;99.90;;;;;;5056538;28;20051;-42
2022/01/24 08:22:07;;;;;;;32.08;16.33;;;6.50;99.90;;;;;;5056295;28;20021;-39
2022/01/24 08:24:33;;;;;;;38.67;16.48;;;6.60;99.90;;;;;;5056637;28;20377;-39
2022/01/24 08:26:58;;;;;;;33.05;16.00;;;6.50;99.90;;;;;;5056403;28;20032;-40
2022/01/24 08:29:24;;;;;;;31.85;15.75;;;6.40;99.90;;;;;;5056313;28;20516;-40
2022/01/24 08:31:50;;;;;;;34.20;16.33;;;6.40;99.90;;;;;;5056210;28;20053;-40
2022/01/24 08:34:16;;;;;;;34.35;16.33;;;6.50;99.90;;;;;;5050049;28;20021;-40
2022/01/24 08:36:41;;;;;;;34.05;15.80;;;6.40;99.90;;;;;;5049266;28;20021;-39
2022/01/24 08:39:08;;;;;;;33.30;15.60;;;6.40;99.90;;;;;;5056193;28;20020;-40
2022/01/24 08:41:56;;;;;;;38.08;18.05;;;6.30;99.90;;;;;;5036763;28;20111;-41
2022/01/24 08:45:41;;;;;;;35.28;17.20;;;6.40;99.90;;;;;;5055217;28;20053;-39
2022/01/24 08:47:16;;;;;;;35.13;16.63;;;6.50;99.90;;;;;;5041376;28;20639;-40
2022/01/24 08:49:42;;;;;;;38.17;17.55;;;6.50;99.90;;;;;;5047294;28;20124;-38
2022/01/24 08:52:08;;;;;;;44.33;18.25;;;6.50;99.90;;;;;;5047764;28;20516;-43
2022/01/24 08:54:33;;;;;;;38.33;19.35;;;6.60;99.90;;;;;;5055722;28;20028;-39
2022/01/24 08:56:59;;;;;;;43.28;18.17;;;6.70;99.90;;;;;;5055656;28;20469;-39
2022/01/24 08:59:25;;;;;;;38.92;17.98;;;6.70;99.90;;;;;;5055801;28;20496;-37
2022/01/24 09:01:50;;;;;;;39.35;18.27;;;6.60;99.90;;;;;;5056040;28;20032;-39
2022/01/24 09:04:16;;;;;;;36.70;18.80;;;6.60;99.90;;;;;;5055546;28;20029;-38
2022/01/24 09:06:42;;;;;;;40.53;18.45;;;6.60;99.90;;;;;;5054887;28;20052;-39
2022/01/24 09:09:07;;;;;;;37.05;19.20;;;6.50;99.90;;;;;;5055646;28;20055;-38
2022/01/24 09:11:35;;;;;;;45.97;19.75;;;6.60;99.90;;;;;;5055721;28;20036;-37
2022/01/24 09:14:03;;;;;;;43.55;19.33;;;6.70;99.90;;;;;;5036681;28;20466;-39
2022/01/24 09:16:29;;;;;;;44.28;19.80;;;6.80;99.90;;;;;;5035375;28;20022;-40
2022/01/24 09:18:55;;;;;;;43.65;20.02;;;6.70;99.90;;;;;;5034793;28;20393;-40
2022/01/24 09:21:21;;;;;;;45.13;19.02;;;6.70;99.90;;;;;;5035362;28;20022;-40
2022/01/24 09:23:47;;;;;;;49.28;20.75;;;6.70;99.90;;;;;;5035345;28;20026;-39
2022/01/24 09:26:13;;;;;;;39.35;18.65;;;6.70;99.90;;;;;;5035259;28;20470;-40
2022/01/24 09:28:39;;;;;;;44.83;19.88;;;6.70;99.90;;;;;;5035417;28;20025;-40
2022/01/24 09:31:06;;;;;;;46.60;20.02;;;6.70;99.90;;;;;;5035068;28;20416;-39
2022/01/24 09:33:32;;;;;;;49.35;20.50;;;6.70;99.90;;;;;;5035330;28;20045;-38
2022/01/24 09:36:00;;;;;;;41.72;18.48;;;6.60;99.90;;;;;;5042311;28;20507;-40
2022/01/24 09:38:32;;;;;;;40.13;18.05;;;6.70;99.90;;;;;;5055349;28;20009;-39
2022/01/24 09:40:59;;;;;;;48.08;20.17;;;6.70;99.90;;;;;;5055082;28;20021;-39
2022/01/24 09:43:25;;;;;;;39.40;18.80;;;6.70;99.90;;;;;;5055177;28;20112;-39
2022/01/24 09:45:51;;;;;;;34.20;17.30;;;6.70;99.90;;;;;;5054995;28;20103;-39
2022/01/24 09:48:17;;;;;;;37.05;17.50;;;6.60;99.90;;;;;;5054696;28;20024;-39
2022/01/24 09:50:45;;;;;;;38.42;18.20;;;6.60;99.90;;;;;;5055157;28;20473;-40
2022/01/24 09:53:12;;;;;;;;;;;6.50;99.90;;;;;;5055185;28;20408;-39
2022/01/24 09:55:38;;;;;;;31.92;15.88;;;6.50;99.90;;;;;;5054861;28;19909;-39
2022/01/24 09:58:04;;;;;;;43.50;19.92;;;6.50;99.90;;;;;;5054643;28;20527;-40
2022/01/24 10:00:29;;;;;;;41.00;18.40;;;6.60;99.90;;;;;;5054583;28;20028;-39
2022/01/24 10:02:56;;;;;;;38.45;16.88;;;6.60;99.90;;;;;;5053188;28;20044;-40
2022/01/24 10:05:30;;;;;;;41.67;18.75;;;6.60;99.90;;;;;;5054556;28;20124;-38
2022/01/24 10:07:58;;;;;;;43.47;19.00;;;6.70;99.90;;;;;;5054851;28;20029;-40
2022/01/24 10:10:45;;;;;;;39.40;18.50;;;6.70;99.90;;;;;;5054449;28;20032;-40
2022/01/24 10:16:25;;;;;;;37.30;17.88;;;6.80;99.90;;;;;;5054632;28;20051;-39
2022/01/24 10:18:57;;;;;;;43.92;18.85;;;6.70;99.90;;;;;;5054680;28;20504;-39
2022/01/24 10:21:22;;;;;;;40.40;18.65;;;6.70;99.90;;;;;;5054235;28;20025;-38
2022/01/24 10:23:48;;;;;;;33.58;16.90;;;6.70;99.90;;;;;;5054306;28;20540;-39
2022/01/24 10:26:14;;;;;;;47.78;19.77;;;6.70;99.90;;;;;;5054153;28;20079;-38
2022/01/24 10:28:43;;;;;;;43.60;18.60;;;6.70;99.90;;;;;;5054491;28;20539;-39
2022/01/24 10:31:09;;;;;;;35.88;17.42;;;6.80;99.90;;;;;;5052786;28;20021;-39
2022/01/24 10:33:55;;;;;;;35.65;16.60;;;6.90;99.90;;;;;;5054224;28;20071;-41
2022/01/24 10:36:48;;;;;;;42.83;18.67;;;6.90;99.90;;;;;;5054126;28;20543;-40
2022/01/24 10:39:30;;;;;;;38.30;17.20;;;6.90;99.90;;;;;;5052882;28;20029;-38
2022/01/24 10:44:56;;;;;;;37.17;17.02;;;7.00;99.90;;;;;;5054025;28;20086;-41
2022/01/24 10:47:27;;;;;;;36.85;15.70;;;7.00;99.90;;;;;;5053526;28;20436;-41
2022/01/24 10:49:53;;;;;;;34.80;15.77;;;7.00;99.90;;;;;;5053747;28;20100;-40
2022/01/24 10:52:33;;;;;;;39.38;18.08;;;7.10;99.90;;;;;;5053444;28;20129;-39
2022/01/24 10:55:28;;;;;;;34.30;16.20;;;7.10;99.90;;;;;;5052169;28;20025;-39
2022/01/24 10:58:18;;;;;;;34.78;15.52;;;7.00;99.90;;;;;;5048931;28;20068;-39
2022/01/24 11:00:45;;;;;;;29.20;15.15;;;7.10;99.90;;;;;;5053768;28;20452;-39
2022/01/24 11:03:17;;;;;;;29.83;15.45;;;7.10;99.90;;;;;;5052240;28;20032;-39
2022/01/24 11:05:43;;;;;;;34.17;15.18;;;7.10;99.90;;;;;;5053273;28;20025;-37
2022/01/24 11:08:14;;;;;;;32.28;15.25;;;6.90;99.90;;;;;;5053239;28;20025;-38
2022/01/24 11:10:45;;;;;;;33.17;15.00;;;6.90;99.90;;;;;;5053606;28;20063;-38
2022/01/24 11:13:12;;;;;;;28.35;14.32;;;6.90;99.90;;;;;;5053361;28;20025;-39
2022/01/24 11:15:48;;;;;;;30.20;13.80;;;6.90;99.90;;;;;;5053185;28;20017;-40
2022/01/24 11:18:16;;;;;;;23.83;12.82;;;6.90;99.90;;;;;;5053551;28;20021;-39
2022/01/24 11:20:45;;;;;;;24.92;14.00;;;7.00;99.90;;;;;;5053231;28;20467;-39
2022/01/24 11:23:12;;;;;;;27.98;12.80;;;7.00;99.90;;;;;;5053130;28;20045;-38
2022/01/24 11:25:41;;;;;;;28.48;12.27;;;7.10;99.90;;;;;;5052957;28;20033;-38
2022/01/24 11:28:08;;;;;;;23.55;12.75;;;7.10;99.90;;;;;;5052929;28;20035;-37
2022/01/24 11:30:42;;;;;;;29.00;14.27;;;7.10;99.90;;;;;;5052895;28;20116;-39
2022/01/24 11:33:18;;;;;;;31.83;13.63;;;7.10;99.90;;;;;;5053116;28;20071;-38
2022/01/24 11:35:51;;;;;;;25.83;12.45;;;7.30;99.90;;;;;;5047870;28;20067;-40
2022/01/24 11:38:30;;;;;;;30.88;12.65;;;7.20;99.90;;;;;;5032919;28;20036;-39
2022/01/24 11:41:00;;;;;;;27.00;13.30;;;7.20;99.90;;;;;;5032597;28;20112;-40
2022/01/24 11:43:37;;;;;;;26.33;11.77;;;7.20;99.90;;;;;;5032860;28;20434;-39
2022/01/24 11:46:24;;;;;;;23.33;11.93;;;7.10;99.90;;;;;;5033192;28;20101;-39
2022/01/24 11:49:03;;;;;;;24.63;11.87;;;7.30;99.90;;;;;;5032766;28;20030;-39
2022/01/24 11:51:31;;;;;;;25.30;12.57;;;7.30;99.90;;;;;;5032771;28;20033;-39
2022/01/24 11:53:58;;;;;;;23.50;12.38;;;7.30;99.90;;;;;;5033105;28;20450;-39
2022/01/24 11:56:26;;;;;;;21.25;11.48;;;7.30;99.90;;;;;;5032601;28;20053;-40
2022/01/24 11:59:22;;;;;;;20.98;10.77;;;7.20;99.90;;;;;;5032682;28;20025;-39
2022/01/24 12:02:12;;;;;;;22.00;11.38;;;7.00;99.90;;;;;;5032876;28;20029;-38
2022/01/24 12:04:55;;;;;;;23.08;11.73;;;6.80;99.90;;;;;;5032604;28;20490;-40
2022/01/24 12:07:25;;;;;;;23.45;12.00;;;6.70;99.90;;;;;;5032701;28;20036;-40
2022/01/24 12:09:56;;;;;;;22.35;11.57;;;6.90;99.90;;;;;;5032716;28;20025;-40
2022/01/24 12:12:44;;;;;;;24.83;12.90;;;6.90;99.90;;;;;;5032534;28;20557;-40
2022/01/24 12:15:10;;;;;;;;;;;7.00;99.90;;;;;;5032845;28;20393;-40
2022/01/24 12:17:52;;;;;;;22.35;11.35;;;7.00;99.90;;;;;;5031399;28;20273;-36
2022/01/24 12:20:40;;;;;;;22.45;11.43;;;7.00;99.90;;;;;;5032518;28;20056;-38
2022/01/24 12:23:24;;;;;;;22.63;11.55;;;7.00;99.90;;;;;;5024800;28;20525;-37
2022/01/24 12:25:58;;;;;;;27.63;13.05;;;7.20;99.90;;;;;;5032553;28;20160;-38
2022/01/24 12:28:29;;;;;;;20.70;11.70;;;7.10;99.90;;;;;;5032561;28;20112;-39
2022/01/24 12:31:02;;;;;;;23.30;11.93;;;7.10;99.90;;;;;;5032231;28;20041;-39
2022/01/24 12:33:39;;;;;;;22.80;12.43;;;7.20;99.90;;;;;;5032420;28;20036;-39
2022/01/24 12:36:15;;;;;;;24.98;12.30;;;7.20;99.90;;;;;;5032608;28;20378;-41
2022/01/24 12:38:47;;;;;;;22.08;10.98;;;7.20;99.90;;;;;;5032644;28;20105;-37
2022/01/24 12:41:26;;;;;;;23.08;11.27;;;7.30;99.90;;;;;;5032390;28;20064;-38
2022/01/24 12:46:27;;;;;;;19.95;11.30;;;7.40;99.90;;;;;;5032566;28;20049;-38
2022/01/24 12:48:55;;;;;;;21.40;11.63;;;7.30;99.90;;;;;;5031179;28;20494;-41
2022/01/24 12:51:24;;;;;;;20.80;10.88;;;7.30;99.90;;;;;;5032631;28;20389;-40
2022/01/24 12:53:51;;;;;;;24.20;11.13;;;7.20;99.90;;;;;;5033650;28;20112;-43
2022/01/24 12:56:18;;;;;;;22.08;11.57;;;7.10;99.90;;;;;;5036243;28;20492;-36
2022/01/24 12:58:50;;;;;;;23.30;12.27;;;7.10;99.90;;;;;;5034705;28;20593;-42
2022/01/24 13:01:23;;;;;;;19.63;11.27;;;7.10;99.90;;;;;;5035946;28;20065;-40
2022/01/24 13:03:56;;;;;;;24.83;11.98;;;7.10;99.90;;;;;;5035887;28;20033;-39
2022/01/24 13:06:22;;;;;;;24.15;11.55;;;7.20;99.90;;;;;;5036036;28;20037;-39
2022/01/24 13:09:16;;;;;;;22.98;11.68;;;7.10;99.90;;;;;;5035700;28;20432;-39
2022/01/24 13:11:53;;;;;;;22.33;11.32;;;6.90;99.90;;;;;;5034674;28;20124;-38
2022/01/24 13:14:31;;;;;;;25.05;11.90;;;6.80;99.90;;;;;;5036068;28;20093;-39
2022/01/24 13:25:23;;;;;;;24.00;11.32;;;6.90;99.90;;;;;;5035908;28;20034;-39
2022/01/24 13:27:59;;;;;;;19.13;10.70;;;7.00;99.90;;;;;;5034425;28;20041;-39
2022/01/24 13:30:32;;;;;;;21.65;11.18;;;7.00;99.90;;;;;;5035486;28;20436;-38
2022/01/24 13:33:03;;;;;;;19.17;10.32;;;7.00;99.90;;;;;;5035626;28;20400;-39
2022/01/24 13:35:38;;;;;;;20.85;11.73;;;7.00;99.90;;;;;;5035861;28;20024;-41
2022/01/24 13:38:08;;;;;;;23.42;10.77;;;7.10;99.90;;;;;;5035481;28;20022;-37
2022/01/24 13:40:41;;;;;;;25.23;10.93;;;7.10;99.90;;;;;;5035444;28;20111;-39
2022/01/24 13:43:10;;;;;;;20.02;10.50;;;7.00;99.90;;;;;;5035432;28;20531;-38
2022/01/24 13:45:41;;;;;;;22.73;10.70;;;7.10;99.90;;;;;;5035082;28;20034;-38
2022/01/24 13:48:20;;;;;;;20.30;10.32;;;7.10;99.90;;;;;;5035345;28;20495;-39
2022/01/24 13:50:54;;;;;;;20.20;11.10;;;7.20;99.90;;;;;;5035164;28;20030;-37
2022/01/24 13:53:34;;;;;;;25.83;11.50;;;7.10;99.90;;;;;;5033518;28;20053;-39
2022/01/24 13:56:14;;;;;;;23.15;11.20;;;7.10;99.90;;;;;;5034948;28;20076;-38
2022/01/24 13:58:39;;;;;;;19.58;10.05;;;7.10;99.90;;;;;;5034788;28;20040;-38
2022/01/24 14:01:05;;;;;;;18.15;9.63;;;7.10;99.90;;;;;;5034752;28;20485;-40
2022/01/24 14:03:31;;;;;;;19.95;11.10;;;6.90;99.90;;;;;;5034814;28;20125;-40
2022/01/24 14:06:15;;;;;;;20.92;10.60;;;6.90;99.90;;;;;;5034451;28;20034;-40
2022/01/24 14:08:42;;;;;;;22.08;9.50;;;6.90;99.90;;;;;;5035063;28;20434;-39
2022/01/24 14:11:17;;;;;;;20.73;11.02;;;7.00;99.90;;;;;;5034710;28;20099;-39
2022/01/24 14:13:57;;;;;;;21.17;10.55;;;7.00;99.90;;;;;;5034812;28;20024;-38
2022/01/24 14:16:38;;;;;;;24.95;10.88;;;7.10;99.90;;;;;;5034740;28;20025;-40
2022/01/24 14:19:03;;;;;;;18.45;10.20;;;6.90;99.90;;;;;;5034442;28;20489;-39
2022/01/24 14:21:29;;;;;;;18.98;9.93;;;6.90;99.90;;;;;;5034293;28;20061;-40
2022/01/24 14:23:55;;;;;;;20.60;10.68;;;6.90;99.90;;;;;;5034260;28;20037;-38
2022/01/24 14:26:25;;;;;;;19.65;9.85;;;6.90;99.90;;;;;;5034528;28;20045;-39
2022/01/24 14:29:13;;;;;;;18.83;9.32;;;7.00;99.90;;;;;;5034360;28;20116;-40
2022/01/24 14:31:40;;;;;;;14.95;8.82;;;7.00;99.90;;;;;;5034030;28;20076;-39
2022/01/24 14:34:07;;;;;;;16.35;9.52;;;7.00;99.90;;;;;;5034015;28;20100;-41